createdAt,value
2023-06-11T00:01:53.555Z,100886.34
2023-06-11T00:04:55.678Z,100887.97
2023-06-11T00:08:02.142Z,100882.06
2023-06-11T00:11:04.082Z,100888.78
2023-06-11T00:14:06.307Z,100888.25
2023-06-11T00:17:08.183Z,100889.56
2023-06-11T00:20:11.064Z,100890.03
2023-06-11T00:23:13.499Z,100885.25
2023-06-11T00:26:15.345Z,100883.78
2023-06-11T00:29:18.192Z,100886.72
2023-06-11T00:32:21.109Z,100894.88
2023-06-11T00:35:22.886Z,100901.09
2023-06-11T00:38:25.295Z,100899.75
2023-06-11T00:41:30.752Z,100894.03
2023-06-11T00:44:32.946Z,100889.13
2023-06-11T00:47:37.814Z,100897.44
2023-06-11T00:50:46.407Z,100897.91
2023-06-11T00:53:48.526Z,100902.78
2023-06-11T00:56:50.305Z,100902.44
2023-06-11T00:59:54.631Z,100898.81
2023-06-11T01:03:08.914Z,100892.22
2023-06-11T01:06:14.273Z,100891.22
2023-06-11T01:09:19.047Z,100900.34
2023-06-11T01:12:21.847Z,100898.06
2023-06-11T01:15:23.630Z,100898.34
2023-06-11T01:18:29.957Z,100889.00
2023-06-11T01:21:46.337Z,100888.19
2023-06-11T01:25:15.809Z,100892.75
2023-06-11T01:28:23.255Z,100885.38
2023-06-11T01:31:30.936Z,100894.19
2023-06-11T01:34:33.834Z,100897.81
2023-06-11T01:37:36.330Z,100899.88
2023-06-11T01:40:40.686Z,100896.47
2023-06-11T01:43:44.979Z,100897.91
2023-06-11T01:46:46.960Z,100904.25
2023-06-11T01:49:49.030Z,100899.44
2023-06-11T01:52:51.204Z,100897.44
2023-06-11T01:55:53.399Z,100897.59
2023-06-11T01:58:55.239Z,100900.22
2023-06-11T02:01:57.794Z,100898.72
2023-06-11T02:04:59.699Z,100900.00
2023-06-11T02:08:01.620Z,100900.13
2023-06-11T02:11:04.898Z,100899.47
2023-06-11T02:14:07.139Z,100900.44
2023-06-11T02:17:10.927Z,100896.47
2023-06-11T02:20:13.328Z,100902.00
2023-06-11T02:23:15.445Z,100903.94
2023-06-11T02:26:17.300Z,100902.94
2023-06-11T02:29:19.038Z,100899.09
2023-06-11T02:32:20.934Z,100898.59
2023-06-11T02:35:24.054Z,100902.47
2023-06-11T02:38:25.795Z,100908.50
2023-06-11T02:41:28.064Z,100906.19
2023-06-11T02:44:29.970Z,100904.69
2023-06-11T02:47:31.857Z,100909.56
2023-06-11T02:50:33.690Z,100914.09
2023-06-11T02:53:35.557Z,100903.94
2023-06-11T02:56:37.928Z,100917.63
2023-06-11T02:59:39.743Z,100914.31
2023-06-11T03:02:41.599Z,100915.56
2023-06-11T03:05:43.646Z,100908.72
2023-06-11T03:08:49.573Z,100909.97
2023-06-11T03:11:52.671Z,100910.66
2023-06-11T03:14:54.501Z,100911.97
2023-06-11T03:17:56.842Z,100916.09
2023-06-11T03:20:59.430Z,100912.22
2023-06-11T03:24:01.324Z,100917.63
2023-06-11T03:27:04.686Z,100915.00
2023-06-11T03:30:07.907Z,100916.09
2023-06-11T03:33:12.350Z,100917.06
2023-06-11T03:36:14.576Z,100923.09
2023-06-11T03:39:18.109Z,100911.72
2023-06-11T03:42:22.605Z,100920.22
2023-06-11T03:45:24.758Z,100920.22
2023-06-11T03:48:26.710Z,100914.47
2023-06-11T03:51:28.655Z,100918.25
2023-06-11T03:54:32.698Z,100918.94
2023-06-11T03:57:34.722Z,100919.94
2023-06-11T04:00:36.665Z,100914.69
2023-06-11T04:03:38.622Z,100917.31
2023-06-11T04:06:41.637Z,100919.63
2023-06-11T04:09:43.949Z,100920.97
2023-06-11T04:12:48.786Z,100920.69
2023-06-11T04:15:51.012Z,100930.31
2023-06-11T04:18:53.418Z,100923.81
2023-06-11T04:21:55.562Z,100927.91
2023-06-11T04:24:58.860Z,100930.06
2023-06-11T04:28:01.018Z,100930.44
2023-06-11T04:31:04.361Z,100930.31
2023-06-11T04:34:12.022Z,100932.47
2023-06-11T04:37:17.343Z,100928.75
2023-06-11T04:40:20.770Z,100921.41
2023-06-11T04:43:24.862Z,100925.69
2023-06-11T04:46:28.190Z,100924.56
2023-06-11T04:49:30.337Z,100932.78
2023-06-11T04:52:33.372Z,100922.84
2023-06-11T04:55:39.932Z,100928.59
2023-06-11T04:58:42.485Z,100926.34
2023-06-11T05:01:48.287Z,100924.25
2023-06-11T05:04:55.128Z,100923.28
2023-06-11T05:07:57.096Z,100921.06
2023-06-11T05:11:01.677Z,100927.63
2023-06-11T05:14:06.854Z,100929.91
2023-06-11T05:17:08.674Z,100931.13
2023-06-11T05:20:11.887Z,100934.91
2023-06-11T05:23:14.283Z,100936.75
2023-06-11T05:26:16.376Z,100924.72
2023-06-11T05:29:21.638Z,100938.16
2023-06-11T05:32:24.019Z,100935.75
2023-06-11T05:35:26.813Z,100930.69
2023-06-11T05:38:30.085Z,100929.28
2023-06-11T05:41:33.143Z,100934.03
2023-06-11T05:44:37.438Z,100937.97
2023-06-11T05:47:39.602Z,100944.91
2023-06-11T05:50:41.660Z,100942.97
2023-06-11T05:53:43.898Z,100936.41
2023-06-11T05:56:46.930Z,100941.03
2023-06-11T05:59:50.386Z,100946.63
2023-06-11T06:02:54.214Z,100950.25
2023-06-11T06:06:02.587Z,100946.88
2023-06-11T06:09:04.553Z,100947.69
2023-06-11T06:12:09.024Z,100947.56
2023-06-11T06:15:12.014Z,100950.38
2023-06-11T06:18:19.382Z,100954.00
2023-06-11T06:21:21.425Z,100950.06
2023-06-11T06:24:23.363Z,100954.00
2023-06-11T06:27:25.495Z,100958.63
2023-06-11T06:30:27.349Z,100959.78
2023-06-11T06:33:31.669Z,100960.59
2023-06-11T06:36:36.766Z,100964.06
2023-06-11T06:39:38.637Z,100962.41
2023-06-11T06:42:40.525Z,100962.56
2023-06-11T06:45:44.312Z,100955.72
2023-06-11T06:48:56.808Z,100965.22
2023-06-11T06:51:58.525Z,100964.72
2023-06-11T06:55:01.184Z,100969.16
2023-06-11T06:58:03.056Z,100959.81
2023-06-11T07:01:05.638Z,100965.53
2023-06-11T07:04:07.419Z,100963.22
2023-06-11T07:07:09.059Z,100966.31
2023-06-11T07:10:11.946Z,100965.66
2023-06-11T07:13:14.284Z,100966.78
2023-06-11T07:16:16.463Z,100965.78
2023-06-11T07:19:27.905Z,100960.81
2023-06-11T07:22:29.753Z,100968.38
2023-06-11T07:25:32.402Z,100964.75
2023-06-11T07:28:36.517Z,100970.47
2023-06-11T07:31:38.433Z,100972.38
2023-06-11T07:34:41.268Z,100970.56
2023-06-11T07:37:43.271Z,100970.50
2023-06-11T07:40:46.456Z,100971.44
2023-06-11T07:43:49.065Z,100970.41
2023-06-11T07:46:54.420Z,100962.84
2023-06-11T07:49:56.970Z,100968.38
2023-06-11T07:53:01.862Z,100968.50
2023-06-11T07:56:04.810Z,100972.09
2023-06-11T07:59:08.038Z,100969.88
2023-06-11T08:02:10.225Z,100975.91
2023-06-11T08:05:12.891Z,100963.31
2023-06-11T08:08:14.989Z,100964.66
2023-06-11T08:11:16.723Z,100970.19
2023-06-11T08:14:20.369Z,100971.94
2023-06-11T08:17:22.079Z,100971.66
2023-06-11T08:20:24.224Z,100973.41
2023-06-11T08:23:26.281Z,100973.59
2023-06-11T08:26:30.131Z,100972.97
2023-06-11T08:29:32.466Z,100973.88
2023-06-11T08:32:34.269Z,100972.16
2023-06-11T08:35:36.202Z,100973.69
2023-06-11T08:38:39.173Z,100972.81
2023-06-11T08:41:41.437Z,100970.28
2023-06-11T08:44:46.591Z,100973.81
2023-06-11T08:47:53.148Z,100967.59
2023-06-11T08:50:56.085Z,100970.41
2023-06-11T08:53:58.205Z,100966.91
2023-06-11T08:57:01.040Z,100965.59
2023-06-11T09:00:03.120Z,100967.72
2023-06-11T09:03:05.654Z,100971.00
2023-06-11T09:06:07.600Z,100964.84
2023-06-11T09:09:13.241Z,100963.47
2023-06-11T09:12:15.440Z,100960.16
2023-06-11T09:15:18.825Z,100963.72
2023-06-11T09:18:22.761Z,100963.56
2023-06-11T09:21:26.188Z,100963.44
2023-06-11T09:24:28.053Z,100962.06
2023-06-11T09:27:29.738Z,100956.63
2023-06-11T09:30:31.824Z,100963.19
2023-06-11T09:33:34.235Z,100959.16
2023-06-11T09:36:36.882Z,100958.41
2023-06-11T09:39:41.057Z,100960.25
2023-06-11T09:42:48.275Z,100961.50
2023-06-11T09:45:54.028Z,100955.66
2023-06-11T09:48:56.315Z,100957.50
2023-06-11T09:51:59.145Z,100950.16
2023-06-11T09:55:03.665Z,100954.72
2023-06-11T09:58:06.206Z,100960.41
2023-06-11T10:01:08.842Z,100958.97
2023-06-11T10:04:11.343Z,100964.28
2023-06-11T10:07:14.032Z,100957.34
2023-06-11T10:10:21.011Z,100961.41
2023-06-11T10:13:36.901Z,100958.53
2023-06-11T10:16:39.052Z,100958.34
2023-06-11T10:19:41.502Z,100965.88
2023-06-11T10:22:43.560Z,100954.03
2023-06-11T10:25:54.010Z,100960.69
2023-06-11T10:28:56.352Z,100967.41
2023-06-11T10:31:58.198Z,100960.84
2023-06-11T10:35:05.924Z,100968.59
2023-06-11T10:38:14.101Z,100960.41
2023-06-11T10:41:16.569Z,100968.75
2023-06-11T10:44:25.181Z,100966.47
2023-06-11T10:47:30.462Z,100972.75
2023-06-11T10:50:34.979Z,100963.50
2023-06-11T10:53:42.246Z,100965.72
2023-06-11T10:56:46.638Z,100973.59
2023-06-11T10:59:51.798Z,100965.41
2023-06-11T11:02:55.823Z,100965.34
2023-06-11T11:06:00.196Z,100969.38
2023-06-11T11:09:04.674Z,100969.34
2023-06-11T11:12:08.347Z,100961.91
2023-06-11T11:15:12.176Z,100963.72
2023-06-11T11:18:14.473Z,100958.94
2023-06-11T11:21:16.654Z,100955.19
2023-06-11T11:24:20.418Z,100948.91
2023-06-11T11:27:28.593Z,100948.56
2023-06-11T11:30:31.796Z,100947.22
2023-06-11T11:33:38.603Z,100950.75
2023-06-11T11:36:40.876Z,100950.66
2023-06-11T11:39:42.783Z,100948.44
2023-06-11T11:42:52.341Z,100956.22
2023-06-11T11:45:54.522Z,100941.50
2023-06-11T11:48:56.953Z,100942.59
2023-06-11T11:52:01.933Z,100949.31
2023-06-11T11:55:05.677Z,100948.22
2023-06-11T11:58:16.358Z,100933.31
2023-06-11T12:01:31.618Z,100929.66
2023-06-11T12:04:47.540Z,100938.31
2023-06-11T12:07:53.675Z,100935.28
2023-06-11T12:10:56.106Z,100931.09
2023-06-11T12:13:58.104Z,100928.25
2023-06-11T12:17:00.413Z,100934.50
2023-06-11T12:20:02.256Z,100925.97
2023-06-11T12:23:04.451Z,100929.47
2023-06-11T12:26:06.845Z,100924.91
2023-06-11T12:29:08.761Z,100927.25
2023-06-11T12:32:16.807Z,100924.78
2023-06-11T12:35:18.943Z,100929.50
2023-06-11T12:38:21.603Z,100928.59
2023-06-11T12:41:23.422Z,100924.97
2023-06-11T12:44:25.610Z,100927.72
2023-06-11T12:47:27.853Z,100920.69
2023-06-11T12:50:29.653Z,100924.06
2023-06-11T12:53:31.665Z,100924.22
2023-06-11T12:56:33.405Z,100916.75
2023-06-11T12:59:35.297Z,100909.63
2023-06-11T13:02:43.380Z,100912.13
2023-06-11T13:05:45.632Z,100918.34
2023-06-11T13:08:47.632Z,100909.56
2023-06-11T13:11:50.362Z,100902.38
2023-06-11T13:14:52.942Z,100907.28
2023-06-11T13:17:54.786Z,100903.59
2023-06-11T13:21:00.233Z,100899.13
2023-06-11T13:24:03.303Z,100898.69
2023-06-11T13:27:05.871Z,100903.63
2023-06-11T13:30:11.453Z,100906.06
2023-06-11T13:33:13.644Z,100903.72
2023-06-11T13:36:17.134Z,100893.56
2023-06-11T13:39:18.838Z,100901.63
2023-06-11T13:42:20.604Z,100893.31
2023-06-11T13:45:22.472Z,100894.69
2023-06-11T13:48:24.245Z,100891.25
2023-06-11T13:51:28.852Z,100881.09
2023-06-11T13:54:33.234Z,100878.44
2023-06-11T13:57:35.082Z,100887.66
2023-06-11T14:00:37.045Z,100890.91
2023-06-11T14:03:39.038Z,100884.00
2023-06-11T14:06:40.864Z,100889.97
2023-06-11T14:09:43.053Z,100885.94
2023-06-11T14:12:44.913Z,100878.13
2023-06-11T14:15:46.942Z,100883.81
2023-06-11T14:18:49.006Z,100894.28
2023-06-11T14:21:50.948Z,100889.97
2023-06-11T14:24:52.944Z,100881.66
2023-06-11T14:27:56.298Z,100880.56
2023-06-11T14:31:03.470Z,100878.44
2023-06-11T14:34:05.597Z,100874.16
2023-06-11T14:37:08.637Z,100873.31
2023-06-11T14:40:11.018Z,100869.31
2023-06-11T14:43:13.163Z,100854.25
2023-06-11T14:46:15.267Z,100863.38
2023-06-11T14:49:21.077Z,100861.72
2023-06-11T14:52:23.491Z,100861.19
2023-06-11T14:55:25.563Z,100857.41
2023-06-11T14:58:27.420Z,100850.47
2023-06-11T15:01:29.472Z,100857.97
2023-06-11T15:04:31.371Z,100849.34
2023-06-11T15:07:35.806Z,100850.97
2023-06-11T15:10:40.337Z,100851.81
2023-06-11T15:13:42.424Z,100852.59
2023-06-11T15:16:45.933Z,100841.28
2023-06-11T15:19:48.066Z,100837.53
2023-06-11T15:22:49.976Z,100850.44
2023-06-11T15:25:52.678Z,100848.03
2023-06-11T15:28:54.651Z,100837.50
2023-06-11T15:31:59.707Z,100836.72
2023-06-11T15:35:01.884Z,100835.09
2023-06-11T15:38:04.701Z,100824.84
2023-06-11T15:41:06.672Z,100830.53
2023-06-11T15:44:08.729Z,100820.00
2023-06-11T15:47:10.858Z,100806.81
2023-06-11T15:50:13.074Z,100815.31
2023-06-11T15:53:15.787Z,100820.47
2023-06-11T15:56:18.989Z,100817.94
2023-06-11T15:59:20.811Z,100817.34
2023-06-11T16:02:22.582Z,100811.47
2023-06-11T16:05:24.634Z,100809.22
2023-06-11T16:08:26.604Z,100812.50
2023-06-11T16:11:28.515Z,100816.47
2023-06-11T16:14:30.416Z,100811.22
2023-06-11T16:17:32.443Z,100813.34
2023-06-11T16:20:34.395Z,100813.41
2023-06-11T16:23:37.218Z,100810.88
2023-06-11T16:26:39.087Z,100812.50
2023-06-11T16:29:40.787Z,100814.63
2023-06-11T16:32:43.488Z,100814.88
2023-06-11T16:35:45.401Z,100812.34
2023-06-11T16:38:47.237Z,100813.97
2023-06-11T16:41:49.291Z,100812.13
2023-06-11T16:44:51.513Z,100803.19
2023-06-11T16:47:53.786Z,100805.88
2023-06-11T16:50:55.732Z,100798.69
2023-06-11T16:53:57.798Z,100796.28
2023-06-11T16:57:00.830Z,100802.19
2023-06-11T17:00:06.028Z,100798.38
2023-06-11T17:03:09.139Z,100795.66
2023-06-11T17:06:11.297Z,100790.72
2023-06-11T17:09:13.267Z,100795.81
2023-06-11T17:12:15.537Z,100797.50
2023-06-11T17:15:17.686Z,100790.44
2023-06-11T17:18:19.316Z,100791.78
2023-06-11T17:21:21.213Z,100780.81
2023-06-11T17:24:23.373Z,100785.28
2023-06-11T17:27:25.520Z,100786.81
2023-06-11T17:30:27.709Z,100778.84
2023-06-11T17:33:29.437Z,100784.38
2023-06-11T17:36:31.234Z,100776.78
2023-06-11T17:39:33.399Z,100773.06
2023-06-11T17:42:35.327Z,100767.69
2023-06-11T17:45:37.284Z,100771.38
2023-06-11T17:48:39.179Z,100768.00
2023-06-11T17:51:42.730Z,100770.72
2023-06-11T17:54:45.048Z,100767.53
2023-06-11T17:57:47.811Z,100770.19
2023-06-11T18:00:49.653Z,100769.06
2023-06-11T18:03:51.594Z,100770.09
2023-06-11T18:06:53.720Z,100767.88
2023-06-11T18:09:55.773Z,100777.19
2023-06-11T18:12:57.726Z,100775.72
2023-06-11T18:15:59.515Z,100779.72
2023-06-11T18:19:01.527Z,100782.88
2023-06-11T18:22:03.719Z,100769.91
2023-06-11T18:25:07.057Z,100771.25
2023-06-11T18:28:10.337Z,100769.34
2023-06-11T18:31:13.313Z,100776.88
2023-06-11T18:34:17.178Z,100780.41
2023-06-11T18:37:19.025Z,100772.81
2023-06-11T18:40:21.033Z,100779.72
2023-06-11T18:43:22.826Z,100764.53
2023-06-11T18:46:25.978Z,100763.97
2023-06-11T18:49:29.808Z,100769.91
2023-06-11T18:52:32.598Z,100767.91
2023-06-11T18:55:34.688Z,100764.84
2023-06-11T18:58:37.585Z,100769.72
2023-06-11T19:01:39.611Z,100770.97
2023-06-11T19:04:42.444Z,100767.47
2023-06-11T19:07:44.859Z,100772.28
2023-06-11T19:10:50.221Z,100765.22
2023-06-11T19:13:52.012Z,100765.63
2023-06-11T19:16:53.950Z,100762.88
2023-06-11T19:19:55.923Z,100772.66
2023-06-11T19:22:57.639Z,100767.72
2023-06-11T19:25:59.602Z,100766.53
2023-06-11T19:29:01.498Z,100761.72
2023-06-11T19:32:04.253Z,100757.41
2023-06-11T19:35:06.864Z,100765.31
2023-06-11T19:38:08.875Z,100760.47
2023-06-11T19:41:13.039Z,100768.81
2023-06-11T19:44:16.630Z,100760.09
2023-06-11T19:47:18.626Z,100762.31
2023-06-11T19:50:25.645Z,100760.25
2023-06-11T19:53:27.526Z,100764.28
2023-06-11T19:56:29.411Z,100769.53
2023-06-11T19:59:31.909Z,100773.78
2023-06-11T20:02:34.188Z,100774.09
2023-06-11T20:05:36.312Z,100772.59
2023-06-11T20:08:38.426Z,100778.00
2023-06-11T20:11:40.351Z,100774.28
2023-06-11T20:14:42.228Z,100778.47
2023-06-11T20:17:44.150Z,100773.91
2023-06-11T20:20:48.832Z,100771.00
2023-06-11T20:23:50.721Z,100775.75
2023-06-11T20:26:54.029Z,100779.09
2023-06-11T20:29:55.872Z,100777.59
2023-06-11T20:32:57.768Z,100778.56
2023-06-11T20:35:59.515Z,100784.94
2023-06-11T20:39:02.908Z,100784.06
2023-06-11T20:42:05.223Z,100787.22
2023-06-11T20:45:10.025Z,100788.69
2023-06-11T20:48:11.759Z,100791.16
2023-06-11T20:51:13.369Z,100784.91
2023-06-11T20:54:15.306Z,100792.66
2023-06-11T20:57:16.904Z,100789.66
2023-06-11T21:00:19.080Z,100788.47
2023-06-11T21:03:20.909Z,100788.91
2023-06-11T21:06:22.959Z,100790.03
2023-06-11T21:09:24.600Z,100792.88
2023-06-11T21:12:28.791Z,100794.50
2023-06-11T21:15:30.842Z,100802.81
2023-06-11T21:18:32.603Z,100790.44
2023-06-11T21:21:34.394Z,100793.97
2023-06-11T21:24:36.509Z,100787.94
2023-06-11T21:27:39.534Z,100791.94
2023-06-11T21:30:41.645Z,100797.41
2023-06-11T21:33:43.366Z,100794.00
2023-06-11T21:36:45.496Z,100796.66
2023-06-11T21:39:47.237Z,100796.72
2023-06-11T21:42:49.084Z,100793.97
2023-06-11T21:45:50.987Z,100787.13
2023-06-11T21:48:52.608Z,100805.19
2023-06-11T21:51:54.633Z,100799.47
2023-06-11T21:54:58.459Z,100800.66
2023-06-11T21:58:04.345Z,100793.28
2023-06-11T22:01:06.097Z,100801.19
2023-06-11T22:04:08.134Z,100805.66
2023-06-11T22:07:10.439Z,100803.88
2023-06-11T22:10:12.798Z,100803.72
2023-06-11T22:13:15.537Z,100793.72
2023-06-11T22:16:17.554Z,100801.13
2023-06-11T22:19:19.976Z,100800.47
2023-06-11T22:22:22.133Z,100797.53
2023-06-11T22:25:25.626Z,100798.81
2023-06-11T22:28:29.087Z,100801.97
2023-06-11T22:31:31.037Z,100805.09
2023-06-11T22:34:32.961Z,100805.75
2023-06-11T22:37:37.677Z,100800.84
2023-06-11T22:40:39.575Z,100801.34
2023-06-11T22:43:41.324Z,100797.25
2023-06-11T22:46:43.213Z,100801.00
2023-06-11T22:49:45.085Z,100796.91
2023-06-11T22:52:50.595Z,100793.16
2023-06-11T22:55:52.282Z,100791.69
2023-06-11T22:58:54.067Z,100790.22
2023-06-11T23:01:56.206Z,100789.91
2023-06-11T23:04:57.938Z,100797.09
2023-06-11T23:08:01.115Z,100787.25
2023-06-11T23:11:02.852Z,100795.47
2023-06-11T23:14:04.483Z,100794.31
2023-06-11T23:17:10.542Z,100794.16
2023-06-11T23:20:13.073Z,100792.84
2023-06-11T23:23:16.873Z,100792.19
2023-06-11T23:26:18.857Z,100796.94
2023-06-11T23:29:20.554Z,100802.81
2023-06-11T23:32:22.311Z,100801.03
2023-06-11T23:35:24.149Z,100797.44
2023-06-11T23:38:26.903Z,100790.88
2023-06-11T23:41:28.630Z,100781.88
2023-06-11T23:44:30.466Z,100791.69
2023-06-11T23:47:32.570Z,100788.75
2023-06-11T23:50:34.589Z,100783.47
2023-06-11T23:53:37.091Z,100779.66
2023-06-11T23:56:38.901Z,100782.94
2023-06-11T23:59:41.043Z,100781.94
